ADDS METAR Data INFO
IDs: Format: Raw Decoded Include TAF

Data at: 2331 UTC 15 Dec 2017

KPRX 152256Z AUTO 26004KT 10SM FEW001 09/M03 A3021 RMK AO2 SLP248 T00941033
KPRX 152244Z AUTO 00000KT 10SM FEW001 10/M03 A3021 RMK AO2
KPRX 152156Z AUTO 29010KT 10SM CLR 11/M03 A3021 RMK AO2 SLP248 T01061033
KPRX 152056Z AUTO 33009KT 10SM CLR 11/M02 A3021 RMK AO2 SLP250 T01111022 56019
KPRX 151956Z AUTO 28008G14KT 10SM CLR 11/M02 A3023 RMK AO2 SLP255 T01111022
KPRX 151856Z AUTO 29004KT 10SM CLR 10/00 A3025 RMK AO2 SLP262 T01000000
KPRX 151756Z AUTO 33008KT 10SM CLR 09/01 A3027 RMK AO2 SLP268 T00940011 10094 21028 58004
KPRX 151656Z AUTO 34010KT 10SM CLR 08/01 A3029 RMK AO2 SLP276 T00780011
KPRX 151556Z AUTO 32009KT 10SM CLR 06/01 A3030 RMK AO2 SLP279 T00560006
KPRX 151456Z AUTO 32010KT 10SM CLR 03/M01 A3028 RMK AO2 SLP273 T00281006 51014
KPRX 151356Z AUTO 30008KT 10SM CLR 01/M02 A3027 RMK AO2 SLP270 T00061022 FZRANO
KPRX 151256Z AUTO 28004KT 10SM CLR M02/M04 A3026 RMK AO2 SLP267 T10171039 FZRANO
KPRX 151156Z AUTO 26003KT 10SM CLR M01/M03 A3024 RMK AO2 SLP259 T10061033 10028 21017 53005 FZRANO
KPRX 151056Z AUTO 28003KT 10SM CLR M01/M03 A3023 RMK AO2 SLP256 T10061033 FZRANO
KPRX 150956Z AUTO 35003KT 10SM CLR 00/M04 A3022 RMK AO2 SLP252 T00001039 FZRANO
KPRX 150856Z AUTO 33004KT 10SM CLR 02/M03 A3023 RMK AO2 SLP254 T00171033 53007 FZRANO
KPRX 150756Z AUTO 32005KT 10SM CLR 02/M03 A3021 RMK AO2 SLP249 T00171028 FZRANO
KPRX 150656Z AUTO 33004KT 10SM CLR 02/M03 A3021 RMK AO2 SLP247 T00221028 FZRANO
KPRX 150556Z AUTO 36005KT 10SM CLR 02/M03 A3020 RMK AO2 SLP246 T00221028 10083 20017 401440017 50007 FZRANO
KPRX 150456Z AUTO 31003KT 10SM CLR 03/M03 A3022 RMK AO2 SLP251 T00331028
KPRX 150356Z AUTO 35005KT 10SM CLR 03/M03 A3019 RMK AO2 SLP242 T00331028
KPRX 150256Z AUTO 36006KT 10SM CLR 04/M03 A3018 RMK AO2 SLP238 T00441028 53028
KPRX 150156Z AUTO 36008KT 10SM CLR 06/M03 A3015 RMK AO2 SLP226 T00611028
KPRX 150056Z AUTO 35013KT 10SM CLR 08/M03 A3013 RMK AO2 SLP218 T00831028
KPRX 142356Z AUTO 34008KT 10SM CLR 08/M03 A3010 RMK AO2 SLP209 T00831028 10144 20083 53022
KPRX 142256Z AUTO 35012KT 10SM CLR 11/M02 A3007 RMK AO2 SLP203 T01061022
KPRX 142156Z AUTO 34014KT 10SM CLR 12/M02 A3005 RMK AO2 SLP194 T01221022
KPRX 142056Z AUTO 01017KT 10SM CLR 14/M02 A3003 RMK AO2 SLP188 T01391017 55010
KPRX 141956Z AUTO 35015G20KT 10SM CLR 14/M02 A3002 RMK AO2 SLP183 T01441022
KPRX 141856Z AUTO 01013KT 10SM CLR 14/M02 A3004 RMK AO2 SLP192 T01391017
KPRX 141756Z AUTO 34016G20KT 10SM CLR 14/M01 A3007 RMK AO2 SLP200 T01391006 10139 20028 50008
KPRX 141656Z AUTO 01016KT 10SM CLR 13/M01 A3008 RMK AO2 SLP202 T01331006
KPRX 141556Z AUTO 01013KT 10SM CLR 11/M01 A3006 RMK AO2 SLP199 T01061006
KPRX 141456Z AUTO 36013KT 10SM CLR 07/M02 A3004 RMK AO2 SLP190 T00721017 51029
KPRX 141356Z AUTO 35008KT 10SM CLR 05/M02 A3002 RMK AO2 SLP181 T00501022
KPRX 141256Z AUTO 35009KT 10SM CLR 03/M03 A2999 RMK AO2 SLP175 T00281028
KPRX 141156Z AUTO 35009KT 10SM CLR 03/M03 A2995 RMK AO2 SLP160 T00331028 10078 20022 53017